< < Back
Terminal Aerodrome Forecast


Current Version              Previous Versions:   1  2  3  4  5  6  7  8  9  

Terminal Aerodrome Forecast

699
FTUS44 KBMX 240500
TAFBHM
TAF
KBHM 240526Z 2406/2506 00000KT P6SM SKC
     FM241600 18006KT P6SM SCT050=



Latest METAR

623
SAUS70 KWBC 250100
MTRBHM
METAR KBHM 250053Z 17003KT 10SM SCT070 24/12 A2987 RMK AO2 SLP107
T02440117


USA.gov is the U.S. government's official web portal to all federal, state and local government web resources and services.